Time;durP1;ratioP1;P1;durP2;ratioP2;P2;SDS_P1;SDS_P2;PMS_P1;PMS_P2;Temp;Humidity;BMP_temperature;BMP_pressure;BME280_temperature;BME280_humidity;BME280_pressure;Samples;Min_cycle;Max_cycle;Signal;HPM_P1;HPM_P2
2022/01/12 00:01:49;;;;;;;26.77;12.90;;;;;;;-4.76;76.67;99384.88;6246163;28;20232;-73
2022/01/12 00:04:53;;;;;;;22.27;12.67;;;;;;;-4.77;76.55;99383.16;6236198;28;20237;-73
2022/01/12 00:07:55;;;;;;;23.30;11.67;;;;;;;-4.80;77.29;99384.88;6255497;28;20230;-73
2022/01/12 00:10:58;;;;;;;21.60;12.33;;;;;;;-4.82;76.42;99373.69;6257018;28;20234;-73
2022/01/12 00:14:00;;;;;;;22.30;11.80;;;;;;;-4.90;76.89;99376.19;6256240;28;20235;-72
2022/01/12 00:17:02;;;;;;;23.17;12.63;;;;;;;-4.82;76.97;99383.97;6237977;28;20286;-74
2022/01/12 00:20:04;;;;;;;22.50;12.03;;;;;;;-4.82;76.58;99382.28;6248800;28;20230;-74
2022/01/12 00:23:06;;;;;;;21.87;11.40;;;;;;;-4.83;77.12;99383.13;6257119;28;20237;-73
2022/01/12 00:26:39;;;;;;;23.97;12.57;;;;;;;-4.95;76.77;99391.59;6256602;28;20705;-73
2022/01/12 00:33:15;;;;;;;22.10;11.47;;;;;;;-4.89;76.57;99404.50;6254726;28;20273;-73
2022/01/12 00:36:17;;;;;;;23.77;11.33;;;;;;;-4.97;77.31;99406.16;6233722;28;20544;-73
2022/01/12 00:39:19;;;;;;;23.27;11.97;;;;;;;-5.01;77.14;99403.56;6237076;28;20215;-73
2022/01/12 00:42:23;;;;;;;23.97;11.83;;;;;;;-5.11;77.84;99415.47;6255248;28;20598;-73
2022/01/12 00:45:26;;;;;;;27.53;12.33;;;;;;;-5.04;77.97;99413.81;6252042;28;20734;-73
2022/01/12 00:48:27;;;;;;;26.00;12.30;;;;;;;-4.93;76.91;99420.78;6230070;28;20227;-74
2022/01/12 00:51:32;;;;;;;24.43;12.37;;;;;;;-4.96;77.41;99419.91;6249401;28;20222;-73
2022/01/12 00:54:34;;;;;;;24.30;12.00;;;;;;;-4.99;77.53;99423.28;6254542;28;20215;-74
2022/01/12 00:57:36;;;;;;;20.57;11.93;;;;;;;-4.99;77.06;99422.47;6238836;28;20744;-73
2022/01/12 01:00:38;;;;;;;23.57;11.30;;;;;;;-5.09;77.55;99424.06;6255712;28;20227;-73
2022/01/12 01:03:40;;;;;;;22.47;11.67;;;;;;;-5.07;77.86;99436.94;6253948;28;20663;-72
2022/01/12 01:06:43;;;;;;;22.93;11.50;;;;;;;-5.06;78.17;99436.09;6254490;28;20222;-73
2022/01/12 01:09:54;;;;;;;26.60;12.07;;;;;;;-5.09;77.49;99423.22;6254308;28;20637;-73
2022/01/12 01:12:56;;;;;;;22.10;12.53;;;;;;;-5.12;78.17;99439.50;6259468;28;20223;-73
2022/01/12 01:16:24;;;;;;;25.37;12.60;;;;;;;-5.05;77.95;99435.25;6251872;28;20228;-72
2022/01/12 01:26:05;;;;;;;26.23;13.13;;;;;;;-5.16;77.86;99436.84;6253931;28;20746;-72
2022/01/12 01:29:07;;;;;;;28.07;13.07;;;;;;;-5.19;78.29;99437.72;6253256;28;20280;-73
2022/01/12 01:32:11;;;;;;;23.37;11.73;;;;;;;-5.29;78.32;99444.44;6236237;28;20230;-73
2022/01/12 01:35:15;;;;;;;23.57;12.67;;;;;;;-5.32;78.69;99441.84;6235623;28;20251;-72
2022/01/12 01:38:17;;;;;;;20.90;11.37;;;;;;;-5.42;78.37;99446.88;6253855;28;20603;-73
2022/01/12 01:41:22;;;;;;;26.43;12.70;;;;;;;-5.43;79.12;99440.00;6253045;28;20230;-73
2022/01/12 01:54:08;;;;;;;25.37;12.93;;;;;;;-5.56;79.30;99446.69;6250400;28;20227;-73
2022/01/12 01:57:10;;;;;;;22.97;11.90;;;;;;;-5.54;79.51;99444.16;6252524;28;20203;-73
2022/01/12 02:00:19;;;;;;;26.40;12.53;;;;;;;-5.52;79.57;99456.19;6252641;28;20679;-73
2022/01/12 02:03:29;;;;;;;21.97;11.53;;;;;;;-5.46;79.24;99457.97;6259205;28;20227;-73
2022/01/12 02:06:34;;;;;;;23.23;12.07;;;;;;;-5.43;79.07;99453.72;6198550;28;20239;-73
2022/01/12 02:09:37;;;;;;;27.23;12.90;;;;;;;-5.50;79.19;99457.06;6234829;28;20242;-73
2022/01/12 02:12:51;;;;;;;27.20;12.67;;;;;;;-5.59;79.42;99447.50;6234680;28;20711;-73
2022/01/12 02:15:55;;;;;;;27.77;14.30;;;;;;;-5.64;79.73;99451.75;6233095;28;20337;-73
2022/01/12 02:35:44;;;;;;;22.07;11.50;;;;;;;-6.05;80.14;99434.97;6252744;28;20357;-73
2022/01/12 02:42:07;;;;;;;27.83;13.17;;;;;;;-6.18;80.30;99436.47;6227966;28;20244;-72
2022/01/12 02:55:11;;;;;;;26.50;12.03;;;;;;;-6.06;81.52;99430.66;6218993;28;20218;-72
2022/01/12 02:58:13;;;;;;;27.47;13.57;;;;;;;-6.12;81.45;99434.03;6227090;28;20223;-73
2022/01/12 03:04:19;;;;;;;25.13;12.43;;;;;;;-6.30;81.57;99443.16;6203224;28;20317;-73
2022/01/12 03:07:23;;;;;;;26.17;13.07;;;;;;;-6.36;81.36;99438.78;6203789;28;20245;-73
2022/01/12 03:10:25;;;;;;;27.10;12.90;;;;;;;-6.41;81.89;99436.16;6227359;28;20236;-73
2022/01/12 03:13:28;;;;;;;25.50;12.77;;;;;;;-6.43;81.55;99437.84;6226730;28;20746;-73
2022/01/12 03:16:31;;;;;;;26.33;13.03;;;;;;;-6.44;82.28;99438.69;6215595;28;20228;-73
2022/01/12 03:19:40;;;;;;;25.63;13.13;;;;;;;-6.45;82.03;99434.38;6218883;28;20310;-73
2022/01/12 03:22:43;;;;;;;23.70;12.57;;;;;;;-6.46;82.29;99426.66;6210262;28;20358;-73
2022/01/12 03:25:46;;;;;;;30.80;13.60;;;;;;;-6.56;81.87;99425.66;6228185;28;20711;-73
2022/01/12 03:28:53;;;;;;;26.23;13.00;;;;;;;-6.63;82.80;99435.81;6226364;28;20239;-73
2022/01/12 03:31:57;;;;;;;28.57;13.70;;;;;;;-6.67;81.84;99431.44;6225828;28;20223;-73
2022/01/12 03:35:08;;;;;;;29.00;13.73;;;;;;;-6.72;81.79;99422.00;6216110;28;20311;-74
2022/01/12 03:38:20;;;;;;;26.13;13.57;;;;;;;-6.65;82.05;99417.81;6202852;28;20688;-73
2022/01/12 03:41:26;;;;;;;26.53;12.50;;;;;;;-6.56;82.95;99414.50;6196819;28;20700;-73
2022/01/12 03:44:29;;;;;;;28.83;13.93;;;;;;;-6.58;82.60;99416.19;6224416;28;20230;-73
2022/01/12 03:47:31;;;;;;;29.17;13.60;;;;;;;-6.60;82.74;99412.75;6219867;28;20232;-74
2022/01/12 03:50:34;;;;;;;28.83;13.53;;;;;;;-6.57;83.03;99415.34;6223386;28;20228;-72
2022/01/12 03:53:37;;;;;;;26.90;12.90;;;;;;;-6.54;82.18;99415.41;6240900;28;20235;-73
2022/01/12 03:56:39;;;;;;;26.20;12.77;;;;;;;-6.49;82.90;99408.66;6250587;28;20682;-73
2022/01/12 03:59:41;;;;;;;27.67;13.70;;;;;;;-6.51;81.85;99407.75;6251276;28;20223;-72
2022/01/12 04:02:43;;;;;;;28.97;13.87;;;;;;;-6.47;82.64;99399.25;6249948;28;20690;-74
2022/01/12 04:08:58;;;;;;;25.23;12.63;;;;;;;-6.60;81.50;99398.22;6252547;28;20243;-74
2022/01/12 04:12:00;;;;;;;26.00;12.83;;;;;;;-6.66;82.18;99403.22;6213429;28;20234;-74
2022/01/12 04:15:02;;;;;;;26.63;13.77;;;;;;;-6.67;82.09;99406.63;6229888;28;20232;-73
2022/01/12 04:18:04;;;;;;;27.93;13.50;;;;;;;-6.66;82.91;99408.38;6210916;28;20724;-72
2022/01/12 04:21:08;;;;;;;25.07;13.37;;;;;;;-6.66;82.77;99410.06;6230969;28;20672;-74
2022/01/12 04:24:11;;;;;;;30.87;14.80;;;;;;;-6.63;82.53;99411.00;6231884;28;21022;-72
2022/01/12 04:27:13;;;;;;;23.73;13.47;;;;;;;-6.63;82.72;99407.56;6232056;28;20239;-73
2022/01/12 04:30:15;;;;;;;30.63;14.67;;;;;;;-6.64;81.98;99406.69;6231388;28;20208;-73
2022/01/12 04:33:18;;;;;;;32.23;15.63;;;;;;;-6.66;82.44;99405.81;6231131;28;20397;-73
2022/01/12 04:36:20;;;;;;;30.30;15.27;;;;;;;-6.68;82.33;99409.19;6210302;28;20570;-73
2022/01/12 04:39:22;;;;;;;30.23;15.00;;;;;;;-6.68;82.58;99406.59;6210769;28;20227;-74
2022/01/12 04:42:24;;;;;;;26.50;14.30;;;;;;;-6.70;83.12;99406.63;6229737;28;20223;-73
2022/01/12 04:45:37;;;;;;;29.07;12.93;;;;;;;-6.76;83.29;99411.63;6225267;28;20228;-73
2022/01/12 04:51:52;;;;;;;31.20;15.83;;;;;;;-6.78;82.32;99428.69;6230701;28;20238;-73
2022/01/12 04:54:55;;;;;;;29.27;14.27;;;;;;;-6.81;82.67;99428.69;6214231;28;20225;-73
2022/01/12 04:57:59;;;;;;;27.53;14.73;;;;;;;-6.78;82.70;99426.13;6231833;28;20228;-73
2022/01/12 05:01:21;;;;;;;32.57;14.67;;;;;;;-6.73;82.59;99416.81;6230740;28;20565;-73
2022/01/12 05:07:59;;;;;;;33.43;15.20;;;;;;;-6.59;82.21;99417.06;6228833;28;20246;-74
2022/01/12 05:14:25;;;;;;;36.37;16.33;;;;;;;-6.42;82.81;99425.88;6228183;28;20235;-73
2022/01/12 05:17:29;;;;;;;35.80;15.63;;;;;;;-6.31;81.93;99426.91;6200880;28;20240;-73
2022/01/12 05:20:32;;;;;;;33.90;16.10;;;;;;;-6.22;82.54;99431.28;6216928;28;20236;-74
2022/01/12 05:23:36;;;;;;;33.93;16.20;;;;;;;-6.19;81.99;99429.66;6230219;28;20691;-74
2022/01/12 05:26:38;;;;;;;33.50;16.57;;;;;;;-6.15;81.82;99433.09;6212775;28;20246;-74
2022/01/12 05:29:41;;;;;;;33.23;15.87;;;;;;;-6.14;81.91;99435.69;6228754;28;20662;-73
2022/01/12 05:32:45;;;;;;;36.73;17.80;;;;;;;-6.14;81.50;99435.69;6229856;28;20237;-73
2022/01/12 05:35:50;;;;;;;35.03;16.90;;;;;;;-6.17;81.99;99443.34;6212923;28;20596;-74
2022/01/12 05:38:52;;;;;;;35.97;17.50;;;;;;;-6.21;82.44;99440.72;6205384;28;20645;-73
2022/01/12 05:41:54;;;;;;;31.13;16.50;;;;;;;-6.24;82.06;99444.13;6227873;28;20238;-74
2022/01/12 05:44:56;;;;;;;35.80;17.83;;;;;;;-6.25;82.77;99438.94;6227728;28;20711;-74
2022/01/12 05:51:04;;;;;;;37.20;17.67;;;;;;;-6.30;82.72;99450.88;6217537;28;20231;-74
2022/01/12 05:54:06;;;;;;;36.80;17.27;;;;;;;-6.27;82.84;99445.75;6229486;28;20289;-74
2022/01/12 05:57:08;;;;;;;37.63;16.93;;;;;;;-6.27;82.34;99449.19;6227697;28;20684;-73
2022/01/12 06:00:13;;;;;;;39.50;18.70;;;;;;;-6.23;82.09;99453.56;6229290;28;20215;-74
2022/01/12 06:03:19;;;;;;;35.23;18.77;;;;;;;-6.23;82.73;99458.69;6227328;28;20648;-74
2022/01/12 06:06:21;;;;;;;41.20;19.47;;;;;;;-6.22;82.25;99460.41;6228529;28;20232;-74
2022/01/12 06:09:24;;;;;;;39.50;18.57;;;;;;;-6.21;82.48;99469.84;6227709;28;20285;-72
2022/01/12 06:12:27;;;;;;;39.93;19.33;;;;;;;-6.21;82.24;99467.28;6227078;28;20220;-74
2022/01/12 06:15:29;;;;;;;36.33;17.53;;;;;;;-6.23;82.88;99476.66;6223805;28;20243;-74
2022/01/12 06:18:32;;;;;;;36.63;16.70;;;;;;;-6.20;82.48;99470.72;6199375;28;20232;-74
2022/01/12 06:21:34;;;;;;;38.30;18.27;;;;;;;-6.20;82.93;99471.59;6226903;28;20223;-74
2022/01/12 06:24:41;;;;;;;31.83;16.63;;;;;;;-6.17;82.55;99470.75;6227431;28;20242;-72
2022/01/12 06:27:51;;;;;;;36.30;17.27;;;;;;;-6.15;82.57;99476.78;6227186;28;20235;-74
2022/01/12 06:31:12;;;;;;;33.40;17.43;;;;;;;-6.13;82.46;99472.53;6210019;28;20234;-74
2022/01/12 06:34:16;;;;;;;35.30;17.00;;;;;;;-6.11;82.48;99473.44;6226331;28;20708;-74
2022/01/12 06:37:18;;;;;;;32.43;15.60;;;;;;;-6.08;81.99;99481.16;6204970;28;20239;-74
2022/01/12 06:40:24;;;;;;;33.60;16.13;;;;;;;-6.07;82.32;99490.59;6209093;28;20266;-74
2022/01/12 06:43:27;;;;;;;35.20;16.27;;;;;;;-6.11;82.32;99489.72;6228800;28;20252;-73
2022/01/12 06:46:31;;;;;;;36.03;16.70;;;;;;;-6.10;82.72;99488.88;6207004;28;20380;-72
2022/01/12 06:49:33;;;;;;;34.90;16.93;;;;;;;-6.08;82.52;99494.88;6212349;28;20255;-73
2022/01/12 06:52:35;;;;;;;32.90;15.77;;;;;;;-6.09;82.21;99502.59;6226730;28;20259;-73
2022/01/12 06:55:38;;;;;;;32.70;17.43;;;;;;;-6.06;82.38;99500.91;6226602;28;20732;-73
2022/01/12 06:58:42;;;;;;;34.47;17.10;;;;;;;-6.02;82.40;99501.81;6227005;28;20365;-74
2022/01/12 07:01:44;;;;;;;32.97;17.17;;;;;;;-5.97;81.74;99513.88;6227709;28;20227;-73
2022/01/12 07:04:49;;;;;;;31.23;16.87;;;;;;;-5.93;82.41;99516.50;6226293;28;20234;-73
2022/01/12 07:07:53;;;;;;;35.07;16.50;;;;;;;-5.98;82.34;99522.44;6227626;28;20618;-74
2022/01/12 07:11:05;;;;;;;35.10;17.30;;;;;;;-5.99;82.37;99525.84;6226269;28;20227;-74
2022/01/12 07:14:07;;;;;;;39.47;18.30;;;;;;;-5.98;82.43;99534.41;6226939;28;20255;-74
2022/01/12 07:17:12;;;;;;;34.27;16.13;;;;;;;-5.92;82.07;99537.09;6221025;28;20236;-73
2022/01/12 07:20:15;;;;;;;37.40;18.00;;;;;;;-5.86;81.94;99541.41;6225609;28;20741;-74
2022/01/12 07:23:18;;;;;;;34.53;17.83;;;;;;;-5.82;81.79;99544.06;6225359;28;20255;-73
2022/01/12 07:26:19;;;;;;;34.83;17.17;;;;;;;-5.82;82.24;99548.34;6227152;28;20219;-74
2022/01/12 07:29:21;;;;;;;32.50;16.80;;;;;;;-5.76;82.06;99554.44;6227176;28;20231;-73
2022/01/12 07:32:23;;;;;;;35.47;17.33;;;;;;;-5.73;81.81;99558.75;6226720;28;20238;-73
2022/01/12 07:35:26;;;;;;;34.97;18.20;;;;;;;-5.78;81.49;99560.38;6215194;28;20734;-74
2022/01/12 07:38:28;;;;;;;35.20;18.33;;;;;;;-5.72;81.56;99560.50;6201931;28;20232;-73
2022/01/12 07:41:30;;;;;;;33.20;17.10;;;;;;;-5.76;81.50;99569.84;6216283;28;20703;-74
2022/01/12 07:44:32;;;;;;;35.17;17.83;;;;;;;-5.71;81.76;99582.78;6229917;28;20266;-70
2022/01/12 07:47:34;;;;;;;40.90;19.33;;;;;;;-5.69;81.72;99587.09;6215549;28;21034;-74
2022/01/12 07:50:35;;;;;;;39.00;18.83;;;;;;;-5.64;81.61;99584.59;6224688;28;20310;-73
2022/01/12 07:53:37;;;;;;;36.37;18.23;;;;;;;-5.59;81.52;99578.66;6254807;28;20237;-74
2022/01/12 07:56:39;;;;;;;38.67;19.80;;;;;;;-5.52;81.43;99577.06;6272342;28;20243;-74
2022/01/12 07:59:41;;;;;;;41.23;18.53;;;;;;;-5.43;81.00;99582.34;6256016;28;20249;-74
2022/01/12 08:02:44;;;;;;;35.77;17.83;;;;;;;-5.38;80.91;99572.09;6257163;28;20717;-74
2022/01/12 08:05:47;;;;;;;39.47;17.63;;;;;;;-5.33;80.93;99573.91;6257374;28;20268;-74
2022/01/12 08:08:48;;;;;;;38.20;18.23;;;;;;;-5.19;80.55;99580.94;6256057;28;20580;-74
2022/01/12 08:11:50;;;;;;;38.10;18.20;;;;;;;-5.15;80.34;99585.25;6256074;28;20234;-73
2022/01/12 08:14:52;;;;;;;39.13;17.70;;;;;;;-5.08;80.32;99584.50;6256589;28;20583;-73
2022/01/12 08:17:54;;;;;;;28.77;15.67;;;;;;;-5.04;79.21;99588.84;6232405;28;20231;-73
2022/01/12 08:20:57;;;;;;;35.70;16.57;;;;;;;-5.00;78.92;99595.78;6231890;28;20231;-74
2022/01/12 08:23:59;;;;;;;35.20;15.60;;;;;;;-4.95;79.12;99612.13;6221586;28;20240;-74
2022/01/12 08:27:08;;;;;;;35.37;18.47;;;;;;;-4.99;79.24;99612.94;6253765;28;20827;-73
2022/01/12 08:30:19;;;;;;;30.43;15.23;;;;;;;-4.95;78.54;99612.97;6254808;28;20664;-73
2022/01/12 08:33:23;;;;;;;34.00;15.23;;;;;;;-4.94;78.31;99609.56;6254634;28;20805;-73
2022/01/12 08:36:25;;;;;;;29.97;16.13;;;;;;;-4.83;78.70;99614.84;6234825;28;20598;-74
2022/01/12 08:39:27;;;;;;;32.37;16.10;;;;;;;-4.78;78.40;99605.44;6241320;28;20234;-73
2022/01/12 08:42:29;;;;;;;31.50;16.13;;;;;;;-4.82;77.81;99610.56;6255743;28;20222;-73
2022/01/12 08:45:32;;;;;;;32.83;16.93;;;;;;;-4.77;78.29;99606.31;6251438;28;20710;-74
2022/01/12 08:48:33;;;;;;;33.00;15.83;;;;;;;-4.77;77.78;99608.91;6229855;28;20232;-74
2022/01/12 08:51:37;;;;;;;31.50;15.30;;;;;;;-4.76;77.63;99629.53;6229167;28;20223;-73
2022/01/12 08:54:39;;;;;;;32.90;16.83;;;;;;;-4.74;78.39;99617.53;6253051;28;20227;-73
2022/01/12 08:57:41;;;;;;;28.50;15.27;;;;;;;-4.69;77.54;99620.19;6220281;28;20727;-73
2022/01/12 09:00:43;;;;;;;31.90;16.33;;;;;;;-4.65;77.73;99617.63;6225241;28;20270;-74
2022/01/12 09:03:46;;;;;;;32.07;16.13;;;;;;;-4.61;77.18;99614.25;6218456;28;20716;-72
2022/01/12 09:06:47;;;;;;;29.63;15.20;;;;;;;-4.46;78.23;99613.53;6223103;28;20232;-74
2022/01/12 09:09:49;;;;;;;30.37;14.97;;;;;;;-4.34;76.84;99620.53;6222057;28;20234;-74
2022/01/12 09:12:51;;;;;;;29.67;15.67;;;;;;;-4.21;76.50;99620.69;6220085;28;20232;-74
2022/01/12 09:15:53;;;;;;;31.03;16.10;;;;;;;-4.03;76.52;99619.13;6241966;28;20652;-74
2022/01/12 09:18:57;;;;;;;33.63;15.37;;;;;;;-4.06;76.36;99617.38;6252899;28;20613;-73
2022/01/12 09:21:59;;;;;;;31.50;14.90;;;;;;;-4.25;75.95;99624.06;6232639;28;20227;-73
2022/01/12 09:25:03;;;;;;;31.30;15.37;;;;;;;-4.16;76.41;99620.72;6212661;28;20239;-74
2022/01/12 09:28:06;;;;;;;26.93;13.77;;;;;;;-3.93;76.21;99620.94;6241984;28;20235;-74
2022/01/12 09:31:08;;;;;;;25.43;14.67;;;;;;;-3.93;75.36;99626.09;6212854;28;20236;-74
2022/01/12 09:34:10;;;;;;;30.47;15.17;;;;;;;-3.98;75.01;99627.75;6187036;28;20640;-72
2022/01/12 09:37:12;;;;;;;23.83;13.53;;;;;;;-3.90;74.27;99628.69;6189776;28;20234;-73
2022/01/12 09:40:14;;;;;;;25.67;14.20;;;;;;;-3.90;75.41;99620.97;6198207;28;20237;-72
2022/01/12 09:43:16;;;;;;;26.30;14.53;;;;;;;-3.67;75.24;99616.84;6226814;28;20243;-74
2022/01/12 09:46:21;;;;;;;30.73;14.43;;;;;;;-3.57;74.07;99613.47;6211541;28;20254;-73
2022/01/12 09:49:23;;;;;;;30.93;15.17;;;;;;;-3.49;75.08;99604.06;6195663;28;20355;-74
2022/01/12 09:52:25;;;;;;;24.47;13.40;;;;;;;-3.52;73.90;99595.44;6193433;28;20517;-73
2022/01/12 09:55:27;;;;;;;27.80;14.43;;;;;;;-3.69;73.74;99599.63;6196061;28;20237;-73
2022/01/12 09:58:35;;;;;;;28.40;14.20;;;;;;;-3.41;73.83;99598.97;6196441;28;20256;-73
2022/01/12 10:01:39;;;;;;;27.73;13.87;;;;;;;-3.23;73.28;99596.47;6208627;28;20228;-73
2022/01/12 10:04:42;;;;;;;29.57;14.50;;;;;;;-3.09;72.71;99583.63;6221459;28;20231;-73
2022/01/12 10:07:44;;;;;;;24.33;13.77;;;;;;;-3.05;72.03;99578.50;6200298;28;20568;-71
2022/01/12 10:11:07;;;;;;;26.63;13.37;;;;;;;-3.19;71.81;99577.56;6205765;28;20621;-73
2022/01/12 10:14:12;;;;;;;29.20;14.77;;;;;;;-2.92;72.00;99575.97;6203593;28;20233;-73
2022/01/12 10:17:16;;;;;;;31.43;14.63;;;;;;;-2.99;72.13;99565.59;6203846;28;20232;-73
2022/01/12 10:20:21;;;;;;;25.80;14.57;;;;;;;-3.14;72.39;99570.72;6194821;28;20597;-74
2022/01/12 10:23:23;;;;;;;29.03;14.80;;;;;;;-2.93;71.82;99572.53;6183110;28;20236;-73
2022/01/12 10:26:40;;;;;;;25.73;14.37;;;;;;;-2.90;71.52;99558.75;6193271;28;20220;-73
2022/01/12 10:29:45;;;;;;;27.50;13.83;;;;;;;-2.79;71.67;99554.47;6198281;28;20663;-73
2022/01/12 10:33:05;;;;;;;28.30;15.40;;;;;;;-2.76;71.69;99554.50;6192627;28;20228;-73
2022/01/12 10:36:07;;;;;;;28.37;15.60;;;;;;;-2.75;72.20;99556.22;6196906;28;20228;-73
2022/01/12 10:39:12;;;;;;;30.30;16.20;;;;;;;-2.90;71.45;99551.00;6201885;28;20216;-74
2022/01/12 10:42:18;;;;;;;31.27;15.07;;;;;;;-2.68;72.05;99545.91;6189871;28;20291;-73
2022/01/12 10:45:20;;;;;;;30.17;16.43;;;;;;;-2.74;71.53;99551.06;6201422;28;20205;-73
2022/01/12 10:48:24;;;;;;;30.87;15.70;;;;;;;-2.65;71.08;99555.38;6213371;28;20278;-73
2022/01/12 10:51:29;;;;;;;28.97;15.27;;;;;;;-2.68;71.19;99545.03;6220858;28;20300;-74
2022/01/12 10:54:54;;;;;;;28.97;16.03;;;;;;;-2.61;71.88;99545.06;6205441;28;20223;-74
2022/01/12 10:57:58;;;;;;;26.47;15.70;;;;;;;-2.73;71.42;99557.09;6195592;28;20689;-73
2022/01/12 11:01:01;;;;;;;26.80;14.83;;;;;;;-2.59;72.73;99562.31;6201133;28;20217;-73
2022/01/12 11:04:04;;;;;;;31.30;14.73;;;;;;;-2.56;71.32;99555.41;6195449;28;20224;-73
2022/01/12 11:07:06;;;;;;;26.30;15.53;;;;;;;-2.25;72.08;99545.97;6191565;28;20334;-74
2022/01/12 11:10:10;;;;;;;34.00;17.43;;;;;;;-2.37;70.59;99551.13;6186856;28;20229;-74
2022/01/12 11:13:13;;;;;;;32.73;17.63;;;;;;;-2.39;72.01;99534.75;6227329;28;20255;-74
2022/01/12 11:16:20;;;;;;;30.83;17.33;;;;;;;-2.50;72.46;99539.06;6208674;28;20724;-73
2022/01/12 11:19:23;;;;;;;35.07;18.77;;;;;;;-2.49;71.92;99544.19;6224799;28;20351;-74
2022/01/12 11:22:27;;;;;;;32.37;17.60;;;;;;;-2.62;71.08;99543.34;6209408;28;20236;-72
2022/01/12 11:25:33;;;;;;;36.27;17.77;;;;;;;-2.76;73.28;99544.16;6202938;28;20440;-73
2022/01/12 11:28:39;;;;;;;35.10;17.67;;;;;;;-2.57;72.11;99543.34;6215256;28;20236;-74
2022/01/12 11:31:40;;;;;;;35.47;17.67;;;;;;;-2.41;72.23;99536.50;6227722;28;20231;-75
2022/01/12 11:34:43;;;;;;;32.20;18.23;;;;;;;-2.20;71.56;99530.47;6228088;28;20636;-74
2022/01/12 11:37:47;;;;;;;34.17;18.10;;;;;;;-2.12;71.20;99527.03;6214049;28;20220;-71
2022/01/12 11:40:50;;;;;;;33.60;17.37;;;;;;;-2.17;71.75;99513.22;6203271;28;20266;-74
2022/01/12 11:44:20;;;;;;;31.07;18.20;;;;;;;-2.19;71.71;99520.09;6225010;28;20265;-74
2022/01/12 11:47:26;;;;;;;32.33;18.80;;;;;;;-2.23;71.80;99528.75;6202220;28;20250;-73
2022/01/12 11:50:28;;;;;;;32.27;17.27;;;;;;;-2.20;71.36;99528.75;6200536;28;20236;-74
2022/01/12 11:53:31;;;;;;;31.70;18.00;;;;;;;-2.15;71.95;99524.44;6221622;28;20231;-73
2022/01/12 11:56:33;;;;;;;30.97;17.67;;;;;;;-1.90;71.82;99523.53;6210266;28;20390;-74
2022/01/12 11:59:55;;;;;;;30.53;16.67;;;;;;;-1.88;70.48;99528.72;6225474;28;20224;-73
2022/01/12 12:02:58;;;;;;;33.07;18.83;;;;;;;-1.81;70.75;99527.00;6223523;28;20604;-74
2022/01/12 12:06:00;;;;;;;31.17;16.17;;;;;;;-1.74;69.86;99526.13;6225284;28;20234;-74
2022/01/12 12:09:15;;;;;;;29.30;16.97;;;;;;;-1.59;70.39;99520.91;6228223;28;20577;-75
2022/01/12 12:12:28;;;;;;;26.10;15.90;;;;;;;-1.64;69.62;99526.09;6225375;28;20689;-74
2022/01/12 12:15:30;;;;;;;30.03;15.83;;;;;;;-1.36;69.62;99507.91;6220641;28;20233;-74
2022/01/12 12:18:33;;;;;;;27.30;16.37;;;;;;;-1.07;68.75;99500.00;6179407;28;20700;-75
2022/01/12 12:21:36;;;;;;;28.00;16.03;;;;;;;-0.90;67.84;99506.00;6225058;28;20235;-74
2022/01/12 12:24:39;;;;;;;30.00;16.33;;;;;;;-0.65;68.41;99502.38;6228041;28;20715;-75
2022/01/12 12:27:44;;;;;;;26.67;16.33;;;;;;;-0.47;67.41;99488.41;6226178;28;20251;-74
2022/01/12 12:30:47;;;;;;;26.90;15.93;;;;;;;-0.47;67.62;99494.47;6226956;28;20224;-73
2022/01/12 12:34:21;;;;;;;28.57;15.90;;;;;;;-0.23;66.69;99502.94;6230817;28;20495;-74
2022/01/12 12:37:23;;;;;;;24.77;15.07;;;;;;;-0.04;65.36;99495.00;6197196;28;20712;-75
2022/01/12 12:40:27;;;;;;;26.17;15.23;;;;;;;-0.15;65.17;99504.59;6216420;28;20238;-73
2022/01/12 12:43:34;;;;;;;29.10;15.60;;;;;;;-0.50;66.83;99517.81;6228469;28;20239;-73
2022/01/12 12:46:37;;;;;;;23.90;13.83;;;;;;;-0.48;66.54;99500.53;6221364;28;20382;-74
2022/01/12 12:49:51;;;;;;;27.03;16.10;;;;;;;-0.43;67.52;99506.56;6207250;28;20582;-73
2022/01/12 12:52:55;;;;;;;24.00;14.87;;;;;;;-0.27;65.47;99506.44;6206670;28;20221;-74
2022/01/12 12:55:57;;;;;;;25.80;15.53;;;;;;;-0.07;65.62;99502.81;6229122;28;20704;-73
2022/01/12 12:59:05;;;;;;;25.00;15.17;;;;;;;-0.31;65.36;99491.78;6230892;28;20227;-73
2022/01/12 13:02:12;;;;;;;23.20;13.40;;;;;;;-0.47;66.77;99501.38;6230411;28;20234;-73
2022/01/12 13:05:17;;;;;;;27.77;15.43;;;;;;;-0.26;67.07;99501.22;6227413;28;20243;-74
2022/01/12 13:08:19;;;;;;;24.77;14.27;;;;;;;1.04;62.94;99496.41;6230796;28;20228;-74
2022/01/12 13:11:28;;;;;;;23.67;13.73;;;;;;;2.21;58.38;99504.16;6228630;28;20259;-75
2022/01/12 13:14:42;;;;;;;26.97;14.50;;;;;;;2.31;57.09;99497.91;6204522;28;20252;-73
2022/01/12 13:17:45;;;;;;;24.37;13.87;;;;;;;0.83;62.16;99517.47;6209065;28;20648;-74
2022/01/12 13:21:09;;;;;;;20.43;13.87;;;;;;;0.00;63.75;99498.44;6230837;28;20220;-74
2022/01/12 13:24:11;;;;;;;22.63;13.17;;;;;;;-0.32;66.07;99500.44;6254566;28;20219;-74
2022/01/12 13:27:14;;;;;;;21.87;14.20;;;;;;;-0.42;66.57;99487.53;6254273;28;20648;-74
2022/01/12 13:30:29;;;;;;;24.03;12.03;;;;;;;-0.49;65.90;99490.16;6253184;28;20260;-74
2022/01/12 13:33:44;;;;;;;20.03;12.40;;;;;;;-0.70;66.40;99496.38;6254210;28;20230;-74
2022/01/12 13:36:50;;;;;;;20.50;11.47;;;;;;;-0.76;67.07;99493.81;6253032;28;20285;-72
2022/01/12 13:40:22;;;;;;;19.30;11.57;;;;;;;-0.80;66.91;99500.72;6254226;28;20372;-74
2022/01/12 13:43:24;;;;;;;18.97;11.60;;;;;;;-0.96;67.46;99499.09;6184666;28;20228;-73
2022/01/12 13:46:31;;;;;;;16.87;10.80;;;;;;;-1.08;68.02;99499.16;6162826;28;20233;-73
2022/01/12 13:49:33;;;;;;;22.00;12.03;;;;;;;-1.16;68.31;99500.91;6185413;28;20236;-75
2022/01/12 13:52:37;;;;;;;15.67;10.73;;;;;;;-1.30;68.48;99493.22;6202230;28;20626;-74
2022/01/12 13:55:52;;;;;;;17.67;10.57;;;;;;;-1.36;68.53;99482.88;6200616;28;20684;-74
2022/01/12 13:58:57;;;;;;;19.00;11.17;;;;;;;-1.44;68.99;99474.28;6201904;28;20618;-75
2022/01/12 14:02:00;;;;;;;17.57;10.57;;;;;;;-1.51;68.93;99491.56;6183925;28;20750;-75
2022/01/12 14:05:08;;;;;;;17.50;10.80;;;;;;;-1.52;69.26;99496.75;6186863;28;20323;-71
2022/01/12 14:08:15;;;;;;;20.90;11.67;;;;;;;-1.60;69.28;99494.16;6179221;28;20229;-72
2022/01/12 14:11:17;;;;;;;17.13;11.30;;;;;;;-1.65;69.52;99497.63;6195718;28;20228;-74
2022/01/12 14:14:20;;;;;;;18.30;11.70;;;;;;;-1.68;69.89;99484.69;6200646;28;20244;-73
2022/01/12 14:17:26;;;;;;;20.57;11.70;;;;;;;-1.71;70.05;99484.72;6190781;28;20239;-73
2022/01/12 14:20:36;;;;;;;19.50;11.97;;;;;;;-1.75;70.20;99483.84;6223444;28;20254;-74
2022/01/12 14:23:38;;;;;;;22.67;11.53;;;;;;;-1.76;70.33;99483.84;6249022;28;20263;-74
2022/01/12 14:26:41;;;;;;;19.10;11.80;;;;;;;-1.80;70.60;99476.97;6251708;28;20299;-72
2022/01/12 14:29:43;;;;;;;19.83;12.43;;;;;;;-1.83;70.92;99482.16;6244822;28;20240;-75
2022/01/12 14:32:47;;;;;;;21.20;11.83;;;;;;;-1.84;70.94;99483.88;6228875;28;20254;-74
2022/01/12 14:35:50;;;;;;;18.47;12.00;;;;;;;-1.87;71.13;99489.91;6486323;22;20238;-71
2022/01/12 14:38:52;;;;;;;19.07;11.73;;;;;;;-1.88;70.95;99490.75;6228080;28;20235;-70
2022/01/12 14:41:56;;;;;;;21.17;12.57;;;;;;;-1.92;71.11;99477.84;6227746;28;20772;-70
2022/01/12 14:44:58;;;;;;;16.97;10.87;;;;;;;-1.97;71.60;99482.16;6210789;28;20231;-70
2022/01/12 14:48:03;;;;;;;18.93;11.50;;;;;;;-1.99;71.39;99482.16;6226771;28;20236;-70
2022/01/12 14:51:06;;;;;;;19.73;12.20;;;;;;;-2.00;71.37;99490.81;6210607;28;20241;-70
2022/01/12 14:54:08;;;;;;;21.23;12.60;;;;;;;-2.04;71.81;99491.66;6227565;28;20667;-71
2022/01/12 14:57:10;;;;;;;20.87;11.03;;;;;;;-2.05;71.67;99502.00;6211138;28;20223;-71
2022/01/12 15:00:24;;;;;;;24.53;12.33;;;;;;;-2.07;71.80;99498.56;6227905;28;20207;-71
2022/01/12 15:03:26;;;;;;;18.97;11.47;;;;;;;-2.09;71.84;99511.47;6228174;28;20224;-70
2022/01/12 15:06:28;;;;;;;20.77;11.77;;;;;;;-2.11;71.89;99514.94;6210775;28;20230;-70
2022/01/12 15:09:32;;;;;;;18.73;12.27;;;;;;;-2.14;72.26;99515.81;6209399;28;20231;-70
2022/01/12 15:12:38;;;;;;;19.30;12.30;;;;;;;-2.18;72.04;99527.00;6228012;28;20226;-70
2022/01/12 15:15:40;;;;;;;20.93;12.30;;;;;;;-2.25;72.27;99522.69;6218322;28;20220;-70
2022/01/12 15:18:42;;;;;;;22.20;12.90;;;;;;;-2.25;72.27;99528.72;6227300;28;20250;-70